sensor_id;sensor_type;location;lat;lon;timestamp;P1;durP1;ratioP1;P2;durP2;ratioP2
18776;SDS011;9517;51.174;4.160;2023-03-14T00:01:21;15.47;;;2.47;;
18776;SDS011;9517;51.174;4.160;2023-03-14T00:03:49;15.30;;;2.67;;
18776;SDS011;9517;51.174;4.160;2023-03-14T00:06:17;12.83;;;2.10;;
18776;SDS011;9517;51.174;4.160;2023-03-14T00:08:44;8.03;;;1.60;;
18776;SDS011;9517;51.174;4.160;2023-03-14T00:11:13;8.93;;;1.57;;
18776;SDS011;9517;51.174;4.160;2023-03-14T00:13:43;12.83;;;1.47;;
18776;SDS011;9517;51.174;4.160;2023-03-14T00:16:12;13.30;;;1.60;;
18776;SDS011;9517;51.174;4.160;2023-03-14T00:18:39;12.30;;;1.47;;
18776;SDS011;9517;51.174;4.160;2023-03-14T00:21:08;8.97;;;1.60;;
18776;SDS011;9517;51.174;4.160;2023-03-14T00:23:36;10.30;;;1.43;;
18776;SDS011;9517;51.174;4.160;2023-03-14T00:26:05;11.70;;;1.70;;
18776;SDS011;9517;51.174;4.160;2023-03-14T00:28:33;9.47;;;1.50;;
18776;SDS011;9517;51.174;4.160;2023-03-14T00:31:03;12.40;;;1.70;;
18776;SDS011;9517;51.174;4.160;2023-03-14T00:33:31;7.60;;;1.20;;
18776;SDS011;9517;51.174;4.160;2023-03-14T00:35:58;7.07;;;1.50;;
18776;SDS011;9517;51.174;4.160;2023-03-14T00:38:27;9.23;;;1.67;;
18776;SDS011;9517;51.174;4.160;2023-03-14T00:40:54;11.53;;;1.90;;
18776;SDS011;9517;51.174;4.160;2023-03-14T00:43:21;8.03;;;1.40;;
18776;SDS011;9517;51.174;4.160;2023-03-14T00:45:49;9.13;;;1.53;;
18776;SDS011;9517;51.174;4.160;2023-03-14T00:48:18;12.30;;;1.47;;
18776;SDS011;9517;51.174;4.160;2023-03-14T00:50:46;8.87;;;1.30;;
18776;SDS011;9517;51.174;4.160;2023-03-14T00:53:13;11.67;;;1.83;;
18776;SDS011;9517;51.174;4.160;2023-03-14T00:55:41;18.43;;;2.00;;
18776;SDS011;9517;51.174;4.160;2023-03-14T00:58:09;13.50;;;1.80;;
18776;SDS011;9517;51.174;4.160;2023-03-14T01:00:37;13.00;;;1.57;;
18776;SDS011;9517;51.174;4.160;2023-03-14T01:03:04;9.40;;;1.60;;
18776;SDS011;9517;51.174;4.160;2023-03-14T01:05:32;13.23;;;2.20;;
18776;SDS011;9517;51.174;4.160;2023-03-14T01:08:00;15.53;;;2.60;;
18776;SDS011;9517;51.174;4.160;2023-03-14T01:10:27;14.47;;;2.07;;
18776;SDS011;9517;51.174;4.160;2023-03-14T01:12:55;13.73;;;2.20;;
18776;SDS011;9517;51.174;4.160;2023-03-14T01:15:22;17.77;;;2.73;;
18776;SDS011;9517;51.174;4.160;2023-03-14T01:17:49;17.97;;;2.43;;
18776;SDS011;9517;51.174;4.160;2023-03-14T01:20:16;12.53;;;2.10;;
18776;SDS011;9517;51.174;4.160;2023-03-14T01:22:45;13.30;;;2.30;;
18776;SDS011;9517;51.174;4.160;2023-03-14T01:25:12;17.10;;;2.30;;
18776;SDS011;9517;51.174;4.160;2023-03-14T01:27:40;16.50;;;2.10;;
18776;SDS011;9517;51.174;4.160;2023-03-14T01:30:08;14.50;;;2.03;;
18776;SDS011;9517;51.174;4.160;2023-03-14T01:32:36;20.27;;;2.40;;
18776;SDS011;9517;51.174;4.160;2023-03-14T01:35:04;15.67;;;2.20;;
18776;SDS011;9517;51.174;4.160;2023-03-14T01:37:31;17.73;;;2.10;;
18776;SDS011;9517;51.174;4.160;2023-03-14T01:40:00;12.67;;;2.27;;
18776;SDS011;9517;51.174;4.160;2023-03-14T01:42:28;10.20;;;1.93;;
18776;SDS011;9517;51.174;4.160;2023-03-14T01:44:56;15.83;;;2.50;;
18776;SDS011;9517;51.174;4.160;2023-03-14T01:47:24;16.47;;;2.70;;
18776;SDS011;9517;51.174;4.160;2023-03-14T01:49:53;21.17;;;2.40;;
18776;SDS011;9517;51.174;4.160;2023-03-14T01:52:25;14.90;;;2.10;;
18776;SDS011;9517;51.174;4.160;2023-03-14T01:54:54;15.50;;;2.57;;
18776;SDS011;9517;51.174;4.160;2023-03-14T01:57:27;13.20;;;2.03;;
18776;SDS011;9517;51.174;4.160;2023-03-14T01:59:57;16.23;;;2.03;;
18776;SDS011;9517;51.174;4.160;2023-03-14T02:02:28;15.53;;;2.20;;
18776;SDS011;9517;51.174;4.160;2023-03-14T02:04:57;17.23;;;2.00;;
18776;SDS011;9517;51.174;4.160;2023-03-14T02:07:26;20.47;;;2.43;;
18776;SDS011;9517;51.174;4.160;2023-03-14T02:10:00;11.53;;;1.57;;
18776;SDS011;9517;51.174;4.160;2023-03-14T02:12:30;11.97;;;1.40;;
18776;SDS011;9517;51.174;4.160;2023-03-14T02:14:58;11.33;;;3.07;;
18776;SDS011;9517;51.174;4.160;2023-03-14T02:17:25;12.73;;;2.03;;
18776;SDS011;9517;51.174;4.160;2023-03-14T02:20:14;10.57;;;1.80;;
18776;SDS011;9517;51.174;4.160;2023-03-14T02:22:51;11.73;;;1.53;;
18776;SDS011;9517;51.174;4.160;2023-03-14T02:25:20;13.67;;;1.67;;
18776;SDS011;9517;51.174;4.160;2023-03-14T02:27:55;7.27;;;1.27;;
18776;SDS011;9517;51.174;4.160;2023-03-14T02:30:24;9.70;;;1.30;;
18776;SDS011;9517;51.174;4.160;2023-03-14T02:32:54;10.47;;;1.77;;
18776;SDS011;9517;51.174;4.160;2023-03-14T02:35:25;10.07;;;1.63;;
18776;SDS011;9517;51.174;4.160;2023-03-14T02:37:57;10.23;;;1.17;;
18776;SDS011;9517;51.174;4.160;2023-03-14T02:40:28;10.90;;;1.67;;
18776;SDS011;9517;51.174;4.160;2023-03-14T02:42:57;8.90;;;1.23;;
18776;SDS011;9517;51.174;4.160;2023-03-14T02:45:40;7.50;;;1.17;;
18776;SDS011;9517;51.174;4.160;2023-03-14T02:48:11;7.17;;;0.90;;
18776;SDS011;9517;51.174;4.160;2023-03-14T02:50:42;8.10;;;1.03;;
18776;SDS011;9517;51.174;4.160;2023-03-14T02:53:12;9.30;;;1.27;;
18776;SDS011;9517;51.174;4.160;2023-03-14T02:55:44;7.43;;;1.00;;
18776;SDS011;9517;51.174;4.160;2023-03-14T02:58:13;4.73;;;1.00;;
18776;SDS011;9517;51.174;4.160;2023-03-14T03:00:41;8.83;;;1.17;;
18776;SDS011;9517;51.174;4.160;2023-03-14T03:03:08;8.30;;;1.40;;
18776;SDS011;9517;51.174;4.160;2023-03-14T03:05:35;9.17;;;1.50;;
18776;SDS011;9517;51.174;4.160;2023-03-14T03:08:02;9.77;;;1.23;;
18776;SDS011;9517;51.174;4.160;2023-03-14T03:10:30;12.20;;;1.57;;
18776;SDS011;9517;51.174;4.160;2023-03-14T03:12:57;5.60;;;0.93;;
18776;SDS011;9517;51.174;4.160;2023-03-14T03:15:26;9.70;;;1.40;;
18776;SDS011;9517;51.174;4.160;2023-03-14T03:17:53;9.70;;;1.30;;
18776;SDS011;9517;51.174;4.160;2023-03-14T03:20:20;10.77;;;1.40;;
18776;SDS011;9517;51.174;4.160;2023-03-14T03:22:48;7.40;;;1.20;;
18776;SDS011;9517;51.174;4.160;2023-03-14T03:25:15;13.87;;;1.97;;
18776;SDS011;9517;51.174;4.160;2023-03-14T03:27:42;12.07;;;1.97;;
18776;SDS011;9517;51.174;4.160;2023-03-14T03:30:09;15.03;;;2.20;;
18776;SDS011;9517;51.174;4.160;2023-03-14T03:32:38;12.30;;;2.00;;
18776;SDS011;9517;51.174;4.160;2023-03-14T03:35:06;11.07;;;1.93;;
18776;SDS011;9517;51.174;4.160;2023-03-14T03:37:33;13.73;;;2.37;;
18776;SDS011;9517;51.174;4.160;2023-03-14T03:40:01;9.23;;;1.73;;
18776;SDS011;9517;51.174;4.160;2023-03-14T03:42:30;13.60;;;1.90;;
18776;SDS011;9517;51.174;4.160;2023-03-14T03:44:58;12.10;;;2.23;;
18776;SDS011;9517;51.174;4.160;2023-03-14T03:47:25;13.13;;;2.30;;
18776;SDS011;9517;51.174;4.160;2023-03-14T03:49:54;12.53;;;2.30;;
18776;SDS011;9517;51.174;4.160;2023-03-14T03:52:21;14.53;;;3.07;;
18776;SDS011;9517;51.174;4.160;2023-03-14T03:54:48;10.33;;;2.00;;
18776;SDS011;9517;51.174;4.160;2023-03-14T03:57:15;13.77;;;2.60;;
18776;SDS011;9517;51.174;4.160;2023-03-14T03:59:42;14.30;;;2.87;;
18776;SDS011;9517;51.174;4.160;2023-03-14T04:02:09;13.53;;;2.80;;
18776;SDS011;9517;51.174;4.160;2023-03-14T04:04:36;9.90;;;2.87;;
18776;SDS011;9517;51.174;4.160;2023-03-14T04:07:05;16.17;;;3.20;;
18776;SDS011;9517;51.174;4.160;2023-03-14T04:09:32;15.83;;;3.37;;
18776;SDS011;9517;51.174;4.160;2023-03-14T04:11:59;13.17;;;3.57;;
18776;SDS011;9517;51.174;4.160;2023-03-14T04:14:26;18.77;;;3.37;;
18776;SDS011;9517;51.174;4.160;2023-03-14T04:16:53;16.10;;;3.87;;
18776;SDS011;9517;51.174;4.160;2023-03-14T04:19:20;17.77;;;4.10;;
18776;SDS011;9517;51.174;4.160;2023-03-14T04:21:47;19.07;;;4.40;;
18776;SDS011;9517;51.174;4.160;2023-03-14T04:24:16;17.43;;;4.10;;
18776;SDS011;9517;51.174;4.160;2023-03-14T04:26:43;16.43;;;4.20;;
18776;SDS011;9517;51.174;4.160;2023-03-14T04:29:10;17.30;;;4.33;;
18776;SDS011;9517;51.174;4.160;2023-03-14T04:31:37;24.30;;;4.77;;
18776;SDS011;9517;51.174;4.160;2023-03-14T04:34:04;15.97;;;4.73;;
18776;SDS011;9517;51.174;4.160;2023-03-14T04:36:31;22.63;;;5.00;;
18776;SDS011;9517;51.174;4.160;2023-03-14T04:38:58;18.23;;;5.27;;
18776;SDS011;9517;51.174;4.160;2023-03-14T04:41:26;16.70;;;4.67;;
18776;SDS011;9517;51.174;4.160;2023-03-14T04:43:53;19.03;;;5.50;;
18776;SDS011;9517;51.174;4.160;2023-03-14T04:46:20;16.80;;;5.20;;
18776;SDS011;9517;51.174;4.160;2023-03-14T04:48:47;16.50;;;5.30;;
18776;SDS011;9517;51.174;4.160;2023-03-14T04:51:14;20.50;;;6.10;;
18776;SDS011;9517;51.174;4.160;2023-03-14T04:53:41;16.73;;;4.97;;
18776;SDS011;9517;51.174;4.160;2023-03-14T04:56:08;21.87;;;5.67;;
18776;SDS011;9517;51.174;4.160;2023-03-14T04:58:39;18.00;;;5.97;;
18776;SDS011;9517;51.174;4.160;2023-03-14T05:01:06;17.17;;;5.50;;
18776;SDS011;9517;51.174;4.160;2023-03-14T05:03:34;20.00;;;5.97;;
18776;SDS011;9517;51.174;4.160;2023-03-14T05:06:03;19.17;;;5.60;;
18776;SDS011;9517;51.174;4.160;2023-03-14T05:08:31;13.53;;;4.50;;
18776;SDS011;9517;51.174;4.160;2023-03-14T05:10:58;14.73;;;4.70;;
18776;SDS011;9517;51.174;4.160;2023-03-14T05:13:25;18.27;;;5.57;;
18776;SDS011;9517;51.174;4.160;2023-03-14T05:15:53;16.10;;;4.97;;
18776;SDS011;9517;51.174;4.160;2023-03-14T05:18:28;16.70;;;5.63;;
18776;SDS011;9517;51.174;4.160;2023-03-14T05:20:55;13.57;;;4.30;;
18776;SDS011;9517;51.174;4.160;2023-03-14T05:23:22;13.50;;;3.63;;
18776;SDS011;9517;51.174;4.160;2023-03-14T05:25:49;12.07;;;3.03;;
18776;SDS011;9517;51.174;4.160;2023-03-14T05:28:17;16.83;;;3.43;;
18776;SDS011;9517;51.174;4.160;2023-03-14T05:30:44;12.37;;;3.27;;
18776;SDS011;9517;51.174;4.160;2023-03-14T05:33:12;11.80;;;2.83;;
18776;SDS011;9517;51.174;4.160;2023-03-14T05:35:39;12.90;;;3.30;;
18776;SDS011;9517;51.174;4.160;2023-03-14T05:38:08;12.13;;;3.27;;
18776;SDS011;9517;51.174;4.160;2023-03-14T05:40:35;9.00;;;2.83;;
18776;SDS011;9517;51.174;4.160;2023-03-14T05:43:02;12.23;;;3.10;;
18776;SDS011;9517;51.174;4.160;2023-03-14T05:45:29;10.53;;;3.17;;
18776;SDS011;9517;51.174;4.160;2023-03-14T05:47:56;8.77;;;3.17;;
18776;SDS011;9517;51.174;4.160;2023-03-14T05:50:24;11.07;;;2.83;;
18776;SDS011;9517;51.174;4.160;2023-03-14T05:52:51;13.27;;;3.77;;
18776;SDS011;9517;51.174;4.160;2023-03-14T05:55:18;11.23;;;3.43;;
18776;SDS011;9517;51.174;4.160;2023-03-14T05:57:45;12.43;;;3.27;;
18776;SDS011;9517;51.174;4.160;2023-03-14T06:00:13;10.73;;;3.40;;
18776;SDS011;9517;51.174;4.160;2023-03-14T06:02:40;13.17;;;3.40;;
18776;SDS011;9517;51.174;4.160;2023-03-14T06:05:07;9.47;;;2.63;;
18776;SDS011;9517;51.174;4.160;2023-03-14T06:07:36;13.57;;;3.37;;
18776;SDS011;9517;51.174;4.160;2023-03-14T06:10:04;10.03;;;2.87;;
18776;SDS011;9517;51.174;4.160;2023-03-14T06:12:32;10.03;;;4.00;;
18776;SDS011;9517;51.174;4.160;2023-03-14T06:14:59;10.83;;;4.77;;
18776;SDS011;9517;51.174;4.160;2023-03-14T06:17:26;11.90;;;2.43;;
18776;SDS011;9517;51.174;4.160;2023-03-14T06:19:53;8.00;;;2.10;;
18776;SDS011;9517;51.174;4.160;2023-03-14T06:22:20;12.77;;;1.80;;
18776;SDS011;9517;51.174;4.160;2023-03-14T06:24:48;11.63;;;2.13;;
18776;SDS011;9517;51.174;4.160;2023-03-14T06:27:15;7.40;;;1.83;;
18776;SDS011;9517;51.174;4.160;2023-03-14T06:29:42;12.07;;;1.50;;
18776;SDS011;9517;51.174;4.160;2023-03-14T06:32:09;6.10;;;1.30;;
18776;SDS011;9517;51.174;4.160;2023-03-14T06:34:36;4.77;;;1.07;;
18776;SDS011;9517;51.174;4.160;2023-03-14T06:37:06;7.90;;;1.40;;
18776;SDS011;9517;51.174;4.160;2023-03-14T06:39:33;13.00;;;2.10;;
18776;SDS011;9517;51.174;4.160;2023-03-14T06:42:02;9.97;;;1.60;;
18776;SDS011;9517;51.174;4.160;2023-03-14T06:44:29;13.77;;;1.80;;
18776;SDS011;9517;51.174;4.160;2023-03-14T06:46:56;12.17;;;1.50;;
18776;SDS011;9517;51.174;4.160;2023-03-14T06:49:23;11.87;;;1.53;;
18776;SDS011;9517;51.174;4.160;2023-03-14T06:51:50;10.27;;;1.17;;
18776;SDS011;9517;51.174;4.160;2023-03-14T06:54:17;9.13;;;1.53;;
18776;SDS011;9517;51.174;4.160;2023-03-14T06:56:44;7.07;;;1.17;;
18776;SDS011;9517;51.174;4.160;2023-03-14T06:59:13;5.73;;;1.30;;
18776;SDS011;9517;51.174;4.160;2023-03-14T07:01:40;10.33;;;1.57;;
18776;SDS011;9517;51.174;4.160;2023-03-14T07:04:08;13.93;;;2.20;;
18776;SDS011;9517;51.174;4.160;2023-03-14T07:06:35;13.50;;;2.63;;
18776;SDS011;9517;51.174;4.160;2023-03-14T07:09:03;15.20;;;2.57;;
18776;SDS011;9517;51.174;4.160;2023-03-14T07:11:30;16.00;;;2.77;;
18776;SDS011;9517;51.174;4.160;2023-03-14T07:13:57;15.37;;;2.87;;
18776;SDS011;9517;51.174;4.160;2023-03-14T07:16:25;14.40;;;2.70;;
18776;SDS011;9517;51.174;4.160;2023-03-14T07:18:56;15.17;;;2.63;;
18776;SDS011;9517;51.174;4.160;2023-03-14T07:21:23;13.17;;;2.43;;
18776;SDS011;9517;51.174;4.160;2023-03-14T07:23:50;18.27;;;2.60;;
18776;SDS011;9517;51.174;4.160;2023-03-14T07:26:17;11.67;;;2.33;;
18776;SDS011;9517;51.174;4.160;2023-03-14T07:28:44;16.73;;;3.17;;
18776;SDS011;9517;51.174;4.160;2023-03-14T07:31:12;12.13;;;2.33;;
18776;SDS011;9517;51.174;4.160;2023-03-14T07:33:40;13.40;;;2.33;;
18776;SDS011;9517;51.174;4.160;2023-03-14T07:36:07;10.83;;;2.20;;
18776;SDS011;9517;51.174;4.160;2023-03-14T07:38:36;14.50;;;2.37;;
18776;SDS011;9517;51.174;4.160;2023-03-14T07:41:04;14.17;;;2.90;;
18776;SDS011;9517;51.174;4.160;2023-03-14T07:43:32;15.77;;;2.63;;
18776;SDS011;9517;51.174;4.160;2023-03-14T07:45:59;15.80;;;2.87;;
18776;SDS011;9517;51.174;4.160;2023-03-14T07:48:27;15.57;;;2.80;;
18776;SDS011;9517;51.174;4.160;2023-03-14T07:50:55;13.73;;;2.63;;
18776;SDS011;9517;51.174;4.160;2023-03-14T07:53:22;13.17;;;2.60;;
18776;SDS011;9517;51.174;4.160;2023-03-14T07:55:50;12.50;;;2.63;;
18776;SDS011;9517;51.174;4.160;2023-03-14T07:58:18;14.63;;;2.70;;
18776;SDS011;9517;51.174;4.160;2023-03-14T08:00:46;12.87;;;2.23;;
18776;SDS011;9517;51.174;4.160;2023-03-14T08:03:13;14.93;;;2.70;;
18776;SDS011;9517;51.174;4.160;2023-03-14T08:05:41;9.73;;;2.30;;
18776;SDS011;9517;51.174;4.160;2023-03-14T08:08:10;10.87;;;2.30;;
18776;SDS011;9517;51.174;4.160;2023-03-14T08:10:37;8.00;;;1.97;;
18776;SDS011;9517;51.174;4.160;2023-03-14T08:13:04;11.73;;;2.23;;
18776;SDS011;9517;51.174;4.160;2023-03-14T08:15:31;13.43;;;2.13;;
18776;SDS011;9517;51.174;4.160;2023-03-14T08:17:58;6.07;;;1.53;;
18776;SDS011;9517;51.174;4.160;2023-03-14T08:20:26;15.70;;;1.87;;
18776;SDS011;9517;51.174;4.160;2023-03-14T08:22:55;9.03;;;1.53;;
18776;SDS011;9517;51.174;4.160;2023-03-14T08:25:25;7.90;;;1.63;;
18776;SDS011;9517;51.174;4.160;2023-03-14T08:27:53;8.07;;;1.67;;
18776;SDS011;9517;51.174;4.160;2023-03-14T08:30:21;7.90;;;1.40;;
18776;SDS011;9517;51.174;4.160;2023-03-14T08:32:48;10.17;;;1.63;;
18776;SDS011;9517;51.174;4.160;2023-03-14T08:35:16;6.27;;;2.20;;
18776;SDS011;9517;51.174;4.160;2023-03-14T08:37:43;9.70;;;1.70;;
18776;SDS011;9517;51.174;4.160;2023-03-14T08:40:10;5.67;;;1.40;;
18776;SDS011;9517;51.174;4.160;2023-03-14T08:42:39;6.53;;;1.77;;
18776;SDS011;9517;51.174;4.160;2023-03-14T08:45:07;8.00;;;1.33;;
18776;SDS011;9517;51.174;4.160;2023-03-14T08:47:35;9.33;;;2.00;;
18776;SDS011;9517;51.174;4.160;2023-03-14T08:50:02;8.50;;;1.63;;
18776;SDS011;9517;51.174;4.160;2023-03-14T08:52:30;6.10;;;1.80;;
18776;SDS011;9517;51.174;4.160;2023-03-14T08:54:57;5.57;;;1.33;;
18776;SDS011;9517;51.174;4.160;2023-03-14T08:57:25;7.63;;;2.20;;
18776;SDS011;9517;51.174;4.160;2023-03-14T08:59:54;9.63;;;2.20;;
18776;SDS011;9517;51.174;4.160;2023-03-14T09:02:22;13.90;;;2.23;;
18776;SDS011;9517;51.174;4.160;2023-03-14T09:04:50;11.00;;;2.77;;
18776;SDS011;9517;51.174;4.160;2023-03-14T09:07:17;8.87;;;2.60;;
18776;SDS011;9517;51.174;4.160;2023-03-14T09:09:44;11.63;;;3.30;;
18776;SDS011;9517;51.174;4.160;2023-03-14T09:12:12;14.03;;;3.40;;
18776;SDS011;9517;51.174;4.160;2023-03-14T09:14:39;10.93;;;3.20;;
18776;SDS011;9517;51.174;4.160;2023-03-14T09:17:08;16.93;;;4.83;;
18776;SDS011;9517;51.174;4.160;2023-03-14T09:19:35;9.10;;;3.07;;
18776;SDS011;9517;51.174;4.160;2023-03-14T09:22:02;8.70;;;3.03;;
18776;SDS011;9517;51.174;4.160;2023-03-14T09:24:30;11.30;;;3.00;;
18776;SDS011;9517;51.174;4.160;2023-03-14T09:26:57;10.83;;;3.80;;
18776;SDS011;9517;51.174;4.160;2023-03-14T09:29:24;9.10;;;3.53;;
18776;SDS011;9517;51.174;4.160;2023-03-14T09:31:51;9.37;;;3.20;;
18776;SDS011;9517;51.174;4.160;2023-03-14T09:34:20;10.37;;;2.90;;
18776;SDS011;9517;51.174;4.160;2023-03-14T09:36:47;6.57;;;2.10;;
18776;SDS011;9517;51.174;4.160;2023-03-14T09:39:14;7.43;;;1.97;;
18776;SDS011;9517;51.174;4.160;2023-03-14T09:41:43;8.30;;;2.00;;
18776;SDS011;9517;51.174;4.160;2023-03-14T09:44:13;8.70;;;2.27;;
18776;SDS011;9517;51.174;4.160;2023-03-14T09:46:43;9.37;;;2.00;;
18776;SDS011;9517;51.174;4.160;2023-03-14T09:49:15;6.57;;;1.90;;
18776;SDS011;9517;51.174;4.160;2023-03-14T09:51:51;6.77;;;1.80;;
18776;SDS011;9517;51.174;4.160;2023-03-14T09:54:26;8.47;;;2.20;;
18776;SDS011;9517;51.174;4.160;2023-03-14T09:56:58;7.90;;;2.00;;
18776;SDS011;9517;51.174;4.160;2023-03-14T09:59:25;10.23;;;2.23;;
18776;SDS011;9517;51.174;4.160;2023-03-14T10:01:55;7.07;;;2.00;;
18776;SDS011;9517;51.174;4.160;2023-03-14T10:04:25;8.40;;;1.70;;
18776;SDS011;9517;51.174;4.160;2023-03-14T10:06:55;8.30;;;2.00;;
18776;SDS011;9517;51.174;4.160;2023-03-14T10:09:22;8.90;;;1.97;;
18776;SDS011;9517;51.174;4.160;2023-03-14T10:11:52;13.13;;;2.03;;
18776;SDS011;9517;51.174;4.160;2023-03-14T10:14:31;13.50;;;2.20;;
18776;SDS011;9517;51.174;4.160;2023-03-14T10:17:06;11.40;;;1.83;;
18776;SDS011;9517;51.174;4.160;2023-03-14T10:19:36;11.83;;;1.47;;
18776;SDS011;9517;51.174;4.160;2023-03-14T10:22:04;10.67;;;1.83;;
18776;SDS011;9517;51.174;4.160;2023-03-14T10:24:32;15.83;;;1.60;;
18776;SDS011;9517;51.174;4.160;2023-03-14T10:27:02;16.17;;;2.87;;
18776;SDS011;9517;51.174;4.160;2023-03-14T10:29:31;13.60;;;1.67;;
18776;SDS011;9517;51.174;4.160;2023-03-14T10:32:00;14.27;;;1.67;;
18776;SDS011;9517;51.174;4.160;2023-03-14T10:34:29;18.13;;;2.40;;
18776;SDS011;9517;51.174;4.160;2023-03-14T10:36:59;10.53;;;1.67;;
18776;SDS011;9517;51.174;4.160;2023-03-14T10:39:36;9.10;;;1.60;;
18776;SDS011;9517;51.174;4.160;2023-03-14T10:42:12;14.60;;;3.37;;
18776;SDS011;9517;51.174;4.160;2023-03-14T10:44:44;9.87;;;1.60;;
18776;SDS011;9517;51.174;4.160;2023-03-14T10:47:15;11.37;;;1.43;;
18776;SDS011;9517;51.174;4.160;2023-03-14T10:49:45;17.40;;;2.03;;
18776;SDS011;9517;51.174;4.160;2023-03-14T10:52:15;15.80;;;2.07;;
18776;SDS011;9517;51.174;4.160;2023-03-14T10:54:48;12.97;;;2.17;;
18776;SDS011;9517;51.174;4.160;2023-03-14T10:57:19;12.93;;;2.13;;
18776;SDS011;9517;51.174;4.160;2023-03-14T10:59:47;16.77;;;2.47;;
18776;SDS011;9517;51.174;4.160;2023-03-14T11:02:34;18.03;;;2.40;;
18776;SDS011;9517;51.174;4.160;2023-03-14T11:05:20;12.40;;;1.93;;
18776;SDS011;9517;51.174;4.160;2023-03-14T11:07:55;13.93;;;2.00;;
18776;SDS011;9517;51.174;4.160;2023-03-14T11:10:30;16.53;;;1.97;;
18776;SDS011;9517;51.174;4.160;2023-03-14T11:13:01;16.97;;;2.20;;
18776;SDS011;9517;51.174;4.160;2023-03-14T11:15:40;16.07;;;2.13;;
18776;SDS011;9517;51.174;4.160;2023-03-14T11:18:20;15.57;;;2.70;;
18776;SDS011;9517;51.174;4.160;2023-03-14T11:21:06;17.73;;;2.30;;
18776;SDS011;9517;51.174;4.160;2023-03-14T11:23:40;18.90;;;2.40;;
18776;SDS011;9517;51.174;4.160;2023-03-14T11:26:17;22.90;;;3.10;;
18776;SDS011;9517;51.174;4.160;2023-03-14T11:28:54;20.73;;;2.70;;
18776;SDS011;9517;51.174;4.160;2023-03-14T11:31:26;22.03;;;2.87;;
18776;SDS011;9517;51.174;4.160;2023-03-14T11:33:56;23.87;;;3.07;;
18776;SDS011;9517;51.174;4.160;2023-03-14T11:36:27;21.23;;;3.20;;
18776;SDS011;9517;51.174;4.160;2023-03-14T11:38:59;16.53;;;2.90;;
18776;SDS011;9517;51.174;4.160;2023-03-14T11:41:27;22.50;;;2.77;;
18776;SDS011;9517;51.174;4.160;2023-03-14T11:44:01;24.33;;;3.67;;
18776;SDS011;9517;51.174;4.160;2023-03-14T11:46:36;17.80;;;3.00;;
18776;SDS011;9517;51.174;4.160;2023-03-14T11:49:06;23.47;;;3.80;;
18776;SDS011;9517;51.174;4.160;2023-03-14T11:51:38;21.17;;;3.40;;
18776;SDS011;9517;51.174;4.160;2023-03-14T11:54:11;25.90;;;3.60;;
18776;SDS011;9517;51.174;4.160;2023-03-14T11:56:46;23.40;;;3.10;;
18776;SDS011;9517;51.174;4.160;2023-03-14T11:59:15;23.70;;;2.93;;
18776;SDS011;9517;51.174;4.160;2023-03-14T12:01:51;21.53;;;3.30;;
18776;SDS011;9517;51.174;4.160;2023-03-14T12:04:24;20.20;;;3.33;;
18776;SDS011;9517;51.174;4.160;2023-03-14T12:07:02;19.93;;;2.37;;
18776;SDS011;9517;51.174;4.160;2023-03-14T12:09:35;15.83;;;1.70;;
18776;SDS011;9517;51.174;4.160;2023-03-14T12:12:03;15.37;;;2.13;;
18776;SDS011;9517;51.174;4.160;2023-03-14T12:14:32;19.03;;;2.40;;
18776;SDS011;9517;51.174;4.160;2023-03-14T12:17:04;17.10;;;2.70;;
18776;SDS011;9517;51.174;4.160;2023-03-14T12:19:38;21.67;;;3.10;;
18776;SDS011;9517;51.174;4.160;2023-03-14T12:24:56;24.57;;;3.27;;
18776;SDS011;9517;51.174;4.160;2023-03-14T12:30:18;19.70;;;3.03;;
18776;SDS011;9517;51.174;4.160;2023-03-14T12:36:01;32.37;;;4.70;;
18776;SDS011;9517;51.174;4.160;2023-03-14T12:42:01;27.70;;;4.47;;
18776;SDS011;9517;51.174;4.160;2023-03-14T12:44:38;29.83;;;4.43;;
18776;SDS011;9517;51.174;4.160;2023-03-14T12:50:21;20.17;;;3.30;;
18776;SDS011;9517;51.174;4.160;2023-03-14T12:55:55;27.97;;;3.50;;
18776;SDS011;9517;51.174;4.160;2023-03-14T12:58:30;27.17;;;3.17;;
18776;SDS011;9517;51.174;4.160;2023-03-14T13:01:01;26.53;;;3.40;;
18776;SDS011;9517;51.174;4.160;2023-03-14T13:03:36;25.23;;;3.17;;
18776;SDS011;9517;51.174;4.160;2023-03-14T13:06:08;29.03;;;3.97;;
18776;SDS011;9517;51.174;4.160;2023-03-14T13:08:37;21.97;;;2.83;;
18776;SDS011;9517;51.174;4.160;2023-03-14T13:11:06;21.27;;;3.03;;
18776;SDS011;9517;51.174;4.160;2023-03-14T13:13:40;20.77;;;3.00;;
18776;SDS011;9517;51.174;4.160;2023-03-14T13:16:12;14.47;;;2.50;;
18776;SDS011;9517;51.174;4.160;2023-03-14T13:18:42;18.30;;;2.27;;
18776;SDS011;9517;51.174;4.160;2023-03-14T13:21:11;16.73;;;2.20;;
18776;SDS011;9517;51.174;4.160;2023-03-14T13:23:53;11.60;;;1.90;;
18776;SDS011;9517;51.174;4.160;2023-03-14T13:26:23;17.37;;;2.13;;
18776;SDS011;9517;51.174;4.160;2023-03-14T13:28:59;17.87;;;2.53;;
18776;SDS011;9517;51.174;4.160;2023-03-14T13:31:26;17.10;;;2.63;;
18776;SDS011;9517;51.174;4.160;2023-03-14T13:33:58;18.97;;;2.30;;
18776;SDS011;9517;51.174;4.160;2023-03-14T13:36:26;21.17;;;2.67;;
18776;SDS011;9517;51.174;4.160;2023-03-14T13:38:57;16.27;;;2.20;;
18776;SDS011;9517;51.174;4.160;2023-03-14T13:41:26;15.70;;;2.30;;
18776;SDS011;9517;51.174;4.160;2023-03-14T13:43:57;15.37;;;1.90;;
18776;SDS011;9517;51.174;4.160;2023-03-14T13:46:29;20.47;;;2.60;;
18776;SDS011;9517;51.174;4.160;2023-03-14T13:49:00;11.30;;;1.70;;
18776;SDS011;9517;51.174;4.160;2023-03-14T13:51:29;14.63;;;2.07;;
18776;SDS011;9517;51.174;4.160;2023-03-14T13:53:59;11.37;;;1.87;;
18776;SDS011;9517;51.174;4.160;2023-03-14T13:56:28;9.47;;;1.83;;
18776;SDS011;9517;51.174;4.160;2023-03-14T13:58:56;13.23;;;1.37;;
18776;SDS011;9517;51.174;4.160;2023-03-14T14:01:25;10.47;;;1.40;;
18776;SDS011;9517;51.174;4.160;2023-03-14T14:03:56;5.87;;;0.80;;
18776;SDS011;9517;51.174;4.160;2023-03-14T14:06:30;3.77;;;0.60;;
18776;SDS011;9517;51.174;4.160;2023-03-14T14:08:59;1.97;;;0.40;;
18776;SDS011;9517;51.174;4.160;2023-03-14T14:11:36;3.33;;;0.60;;
18776;SDS011;9517;51.174;4.160;2023-03-14T14:14:06;2.27;;;0.50;;
18776;SDS011;9517;51.174;4.160;2023-03-14T14:16:39;5.10;;;1.00;;
18776;SDS011;9517;51.174;4.160;2023-03-14T14:19:07;3.80;;;0.87;;
18776;SDS011;9517;51.174;4.160;2023-03-14T14:21:35;2.17;;;0.50;;
18776;SDS011;9517;51.174;4.160;2023-03-14T14:24:02;4.03;;;0.70;;
18776;SDS011;9517;51.174;4.160;2023-03-14T14:26:31;4.23;;;0.80;;
18776;SDS011;9517;51.174;4.160;2023-03-14T14:28:59;3.70;;;0.67;;
18776;SDS011;9517;51.174;4.160;2023-03-14T14:31:28;5.93;;;1.07;;
18776;SDS011;9517;51.174;4.160;2023-03-14T14:33:57;6.30;;;1.20;;
18776;SDS011;9517;51.174;4.160;2023-03-14T14:36:27;9.93;;;1.63;;
18776;SDS011;9517;51.174;4.160;2023-03-14T14:38:57;12.00;;;1.40;;
18776;SDS011;9517;51.174;4.160;2023-03-14T14:41:29;7.37;;;1.00;;
18776;SDS011;9517;51.174;4.160;2023-03-14T14:43:58;7.07;;;1.40;;
18776;SDS011;9517;51.174;4.160;2023-03-14T14:46:27;6.87;;;1.40;;
18776;SDS011;9517;51.174;4.160;2023-03-14T14:49:01;8.67;;;0.90;;
18776;SDS011;9517;51.174;4.160;2023-03-14T14:51:31;18.20;;;2.00;;
18776;SDS011;9517;51.174;4.160;2023-03-14T14:54:02;14.30;;;1.70;;
18776;SDS011;9517;51.174;4.160;2023-03-14T14:56:36;9.63;;;1.50;;
18776;SDS011;9517;51.174;4.160;2023-03-14T14:59:04;10.93;;;1.60;;
18776;SDS011;9517;51.174;4.160;2023-03-14T15:01:33;11.57;;;1.70;;
18776;SDS011;9517;51.174;4.160;2023-03-14T15:04:04;13.50;;;1.40;;
18776;SDS011;9517;51.174;4.160;2023-03-14T15:06:38;11.50;;;2.13;;
18776;SDS011;9517;51.174;4.160;2023-03-14T15:09:08;15.70;;;1.93;;
18776;SDS011;9517;51.174;4.160;2023-03-14T15:11:36;11.03;;;1.67;;
18776;SDS011;9517;51.174;4.160;2023-03-14T15:14:03;15.13;;;2.00;;
18776;SDS011;9517;51.174;4.160;2023-03-14T15:16:32;16.47;;;1.90;;
18776;SDS011;9517;51.174;4.160;2023-03-14T15:19:00;19.07;;;2.43;;
18776;SDS011;9517;51.174;4.160;2023-03-14T15:21:31;15.40;;;1.87;;